Time;durP1;ratioP1;P1;durP2;ratioP2;P2;SDS_P1;SDS_P2;PMS_P1;PMS_P2;Temp;Humidity;BMP_temperature;BMP_pressure;BME280_temperature;BME280_humidity;BME280_pressure;Samples;Min_cycle;Max_cycle;Signal;HPM_P1;HPM_P2
2021/08/29 00:01:15;;;;;;;5.60;4.87;;;19.30;51.10;;;;;;5074522;28;20510;-91
2021/08/29 00:03:42;;;;;;;6.83;4.00;;;19.50;50.20;;;;;;5074525;28;20934;-91
2021/08/29 00:06:10;;;;;;;7.17;4.50;;;19.30;50.40;;;;;;5076012;28;20466;-91
2021/08/29 00:08:38;;;;;;;5.83;4.83;;;19.20;50.10;;;;;;5075444;28;20454;-91
2021/08/29 00:11:20;;;;;;;9.00;4.20;;;19.20;49.10;;;;;;5077150;28;20454;-91
2021/08/29 00:13:49;;;;;;;5.23;4.10;;;19.20;50.90;;;;;;5077528;28;20443;-91
2021/08/29 00:16:17;;;;;;;6.20;4.30;;;19.00;49.50;;;;;;5082405;28;20530;-91
2021/08/29 00:18:47;;;;;;;8.70;4.53;;;18.90;50.20;;;;;;5074875;28;20431;-91
2021/08/29 00:21:14;;;;;;;4.97;4.63;;;18.80;51.00;;;;;;5077091;28;20460;-91
2021/08/29 00:23:43;;;;;;;9.80;5.50;;;19.10;51.00;;;;;;5077361;28;20442;-91
2021/08/29 00:26:10;;;;;;;5.40;4.63;;;18.90;50.20;;;;;;5084158;28;20486;-90
2021/08/29 00:28:40;;;;;;;8.33;6.80;;;18.60;49.50;;;;;;5086650;28;20428;-90
2021/08/29 00:31:07;;;;;;;5.97;4.67;;;18.70;49.90;;;;;;5093496;28;20443;-91
2021/08/29 00:33:34;;;;;;;13.77;6.60;;;18.70;50.80;;;;;;5087869;28;20436;-91
2021/08/29 00:36:01;;;;;;;15.00;7.43;;;18.70;49.80;;;;;;5086550;28;20448;-91
2021/08/29 00:38:28;;;;;;;6.77;4.93;;;18.50;49.00;;;;;;5083511;28;20451;-92
2021/08/29 00:40:59;;;;;;;8.67;7.53;;;18.50;49.50;;;;;;5090779;28;20501;-92
2021/08/29 00:43:30;;;;;;;8.10;6.43;;;18.40;49.90;;;;;;5093450;28;20439;-92
2021/08/29 00:45:57;;;;;;;10.80;6.80;;;18.40;51.00;;;;;;5094627;28;20478;-91
2021/08/29 00:48:24;;;;;;;6.93;6.30;;;18.20;50.10;;;;;;5095049;28;20444;-91
2021/08/29 00:50:51;;;;;;;12.90;6.67;;;18.00;50.70;;;;;;5097266;28;20471;-91
2021/08/29 00:53:19;;;;;;;12.23;7.57;;;17.60;51.90;;;;;;5100280;28;20436;-92
2021/08/29 00:55:54;;;;;;;9.43;7.30;;;17.50;51.90;;;;;;5096996;28;20424;-92
2021/08/29 00:58:23;;;;;;;13.83;7.47;;;17.60;52.10;;;;;;5084012;28;20412;-92
2021/08/29 01:00:52;;;;;;;9.10;6.60;;;17.70;51.50;;;;;;5083099;28;20472;-92
2021/08/29 01:03:24;;;;;;;9.73;6.90;;;17.80;52.00;;;;;;5083297;28;20439;-92
2021/08/29 01:05:56;;;;;;;14.37;8.20;;;17.80;51.80;;;;;;5082394;28;20484;-91
2021/08/29 01:08:26;;;;;;;12.20;9.00;;;17.60;52.20;;;;;;5081934;28;20951;-91
2021/08/29 01:10:58;;;;;;;6.97;6.23;;;17.40;52.50;;;;;;5081973;28;20501;-92
2021/08/29 01:13:32;;;;;;;11.93;7.80;;;17.10;54.70;;;;;;5085392;28;20473;-91
2021/08/29 01:16:04;;;;;;;11.07;7.20;;;17.30;53.40;;;;;;5083974;28;20427;-91
2021/08/29 01:18:35;;;;;;;9.97;7.40;;;17.40;53.10;;;;;;5082192;28;20482;-92
2021/08/29 01:21:07;;;;;;;9.17;7.67;;;17.20;53.60;;;;;;5077932;28;20520;-92
2021/08/29 01:23:37;;;;;;;8.87;7.67;;;17.40;53.50;;;;;;5077543;28;20408;-92
2021/08/29 01:26:10;;;;;;;8.30;7.33;;;17.40;52.70;;;;;;5078345;28;20529;-92
2021/08/29 01:28:52;;;;;;;9.20;7.07;;;17.70;53.90;;;;;;5083651;28;20643;-91
2021/08/29 01:31:20;;;;;;;8.80;7.07;;;17.60;52.80;;;;;;5093426;28;20471;-92
2021/08/29 01:33:49;;;;;;;8.90;7.00;;;17.80;52.50;;;;;;5097566;28;20428;-92
2021/08/29 01:36:17;;;;;;;8.77;7.20;;;17.70;52.00;;;;;;5095296;28;20916;-91
2021/08/29 01:38:47;;;;;;;9.37;6.00;;;17.30;53.60;;;;;;5095639;28;20440;-91
2021/08/29 01:41:18;;;;;;;7.80;6.70;;;17.20;54.30;;;;;;5096858;28;20452;-92
2021/08/29 01:43:46;;;;;;;9.50;5.60;;;17.20;54.30;;;;;;5097222;28;20436;-92
2021/08/29 01:46:16;;;;;;;10.10;7.00;;;17.50;54.00;;;;;;5096416;28;20542;-92
2021/08/29 01:48:44;;;;;;;6.20;5.40;;;17.60;52.50;;;;;;5090318;28;20431;-91
2021/08/29 01:51:12;;;;;;;17.63;6.50;;;17.50;53.50;;;;;;5079658;28;20976;-91
2021/08/29 01:53:40;;;;;;;11.63;6.67;;;17.20;54.20;;;;;;5078811;28;20458;-91
2021/08/29 01:56:08;;;;;;;12.17;5.10;;;17.20;53.50;;;;;;5077418;28;20443;-91
2021/08/29 01:58:37;;;;;;;6.23;5.40;;;17.20;53.90;;;;;;5078179;28;20467;-91
2021/08/29 02:01:14;;;;;;;7.03;5.90;;;17.80;53.00;;;;;;5077091;28;20507;-91
2021/08/29 02:03:44;;;;;;;8.17;7.00;;;17.90;52.50;;;;;;5078960;28;20447;-91
2021/08/29 02:06:13;;;;;;;6.60;5.97;;;18.00;51.00;;;;;;5077356;28;20988;-91
2021/08/29 02:08:58;;;;;;;5.90;4.73;;;17.70;53.00;;;;;;5078212;28;20452;-91
2021/08/29 02:11:28;;;;;;;7.70;5.87;;;17.90;53.00;;;;;;5093060;28;20440;-91
2021/08/29 02:13:58;;;;;;;4.57;4.10;;;18.70;52.40;;;;;;5093109;28;20412;-91
2021/08/29 02:16:26;;;;;;;13.60;6.93;;;18.70;51.60;;;;;;5078125;28;20424;-91
2021/08/29 02:18:57;;;;;;;7.53;4.80;;;18.80;50.80;;;;;;5077549;28;20447;-91
2021/08/29 02:21:28;;;;;;;12.00;5.70;;;19.00;51.90;;;;;;5076512;28;20499;-91
2021/08/29 02:23:57;;;;;;;8.27;6.53;;;19.00;50.90;;;;;;5076404;28;20520;-91
2021/08/29 02:26:34;;;;;;;11.50;5.70;;;18.70;49.70;;;;;;5076073;28;20482;-91
2021/08/29 02:29:04;;;;;;;7.90;5.20;;;18.80;50.60;;;;;;5076609;28;20416;-91
2021/08/29 02:31:35;;;;;;;7.23;5.90;;;18.50;52.30;;;;;;5075694;28;20448;-91
2021/08/29 02:34:04;;;;;;;10.10;6.03;;;18.80;50.60;;;;;;5076402;28;20458;-91
2021/08/29 02:36:32;;;;;;;5.73;4.93;;;18.50;49.80;;;;;;5075767;28;20436;-91
2021/08/29 02:39:02;;;;;;;9.90;5.53;;;18.70;51.00;;;;;;5081796;28;20451;-90
2021/08/29 02:41:31;;;;;;;5.80;5.10;;;18.50;50.50;;;;;;5081663;28;20508;-91
2021/08/29 02:44:12;;;;;;;11.10;6.40;;;18.50;51.40;;;;;;5076127;28;20458;-91
2021/08/29 02:46:46;;;;;;;7.93;5.73;;;18.20;51.10;;;;;;5075782;28;20470;-91
2021/08/29 02:49:24;;;;;;;9.20;6.47;;;18.30;51.60;;;;;;5076029;28;20424;-91
2021/08/29 02:51:52;;;;;;;5.00;4.40;;;18.40;52.30;;;;;;5075935;28;20509;-91
2021/08/29 02:54:32;;;;;;;8.77;6.10;;;18.60;52.80;;;;;;5075478;28;20447;-91
2021/08/29 02:57:01;;;;;;;7.37;6.00;;;18.60;50.80;;;;;;5077394;28;20470;-91
2021/08/29 02:59:34;;;;;;;11.13;5.93;;;18.60;50.40;;;;;;5076885;28;20451;-91
2021/08/29 03:02:01;;;;;;;5.90;4.80;;;18.70;50.50;;;;;;5075672;28;20459;-91
2021/08/29 03:04:36;;;;;;;10.33;6.17;;;18.50;51.40;;;;;;5075629;28;20587;-91
2021/08/29 03:07:10;;;;;;;10.17;6.20;;;18.30;51.50;;;;;;5076339;28;20415;-92
2021/08/29 03:09:38;;;;;;;6.13;5.37;;;18.30;51.00;;;;;;5075842;28;20448;-91
2021/08/29 03:12:12;;;;;;;10.03;6.27;;;18.50;52.40;;;;;;5076741;28;20478;-91
2021/08/29 03:14:41;;;;;;;4.77;4.13;;;18.70;51.70;;;;;;5076880;28;20447;-91
2021/08/29 03:17:08;;;;;;;4.73;4.13;;;18.90;52.60;;;;;;5076261;28;20442;-92
2021/08/29 03:19:38;;;;;;;4.20;3.90;;;19.00;52.30;;;;;;5076681;28;20469;-91
2021/08/29 03:22:06;;;;;;;5.77;4.30;;;19.30;52.10;;;;;;5076993;28;20782;-92
2021/08/29 03:24:37;;;;;;;6.33;5.63;;;19.30;51.20;;;;;;5078025;28;20463;-91
2021/08/29 03:27:05;;;;;;;9.87;5.67;;;19.50;51.20;;;;;;5077567;28;20463;-91
2021/08/29 03:29:33;;;;;;;7.63;5.73;;;19.40;50.30;;;;;;5076830;28;20458;-91
2021/08/29 03:32:01;;;;;;;8.00;5.27;;;19.20;50.90;;;;;;5076887;28;20498;-91
2021/08/29 03:34:29;;;;;;;7.30;6.03;;;19.20;50.20;;;;;;5077416;28;20822;-91
2021/08/29 03:37:01;;;;;;;7.77;5.80;;;19.20;50.80;;;;;;5076956;28;20443;-91
2021/08/29 03:39:30;;;;;;;6.67;5.77;;;19.00;50.20;;;;;;5076067;28;20462;-91
2021/08/29 03:41:59;;;;;;;6.23;5.00;;;18.80;51.50;;;;;;5075290;28;20471;-91
2021/08/29 03:44:27;;;;;;;17.43;7.47;;;18.90;51.30;;;;;;5074829;28;20547;-91
2021/08/29 03:46:59;;;;;;;8.63;6.80;;;18.60;50.40;;;;;;5075415;28;20800;-91
2021/08/29 03:49:27;;;;;;;7.10;5.33;;;18.60;50.40;;;;;;5081093;28;20450;-91
2021/08/29 03:52:09;;;;;;;6.97;5.70;;;18.60;51.90;;;;;;5083443;28;20463;-91
2021/08/29 03:54:37;;;;;;;8.60;6.90;;;18.40;51.70;;;;;;5075925;28;20432;-91
2021/08/29 03:57:07;;;;;;;8.90;6.10;;;18.40;51.40;;;;;;5075218;28;20555;-91
2021/08/29 03:59:34;;;;;;;7.47;5.43;;;18.40;50.90;;;;;;5074603;28;20416;-91
2021/08/29 04:02:05;;;;;;;7.70;6.67;;;18.60;52.50;;;;;;5075115;28;20480;-91
2021/08/29 04:04:33;;;;;;;12.67;6.37;;;18.80;51.60;;;;;;5078087;28;20823;-92
2021/08/29 04:07:04;;;;;;;17.13;7.90;;;18.70;51.20;;;;;;5077734;28;20466;-92
2021/08/29 04:09:36;;;;;;;9.87;6.33;;;18.80;51.00;;;;;;5078015;28;20438;-92
2021/08/29 04:12:06;;;;;;;9.37;5.97;;;18.90;52.20;;;;;;5078143;28;20495;-91
2021/08/29 04:14:33;;;;;;;5.67;4.73;;;19.10;52.20;;;;;;5078210;28;20463;-92
2021/08/29 04:17:01;;;;;;;5.70;4.90;;;19.40;51.60;;;;;;5077501;28;20443;-91
2021/08/29 04:19:29;;;;;;;6.17;5.20;;;19.50;51.50;;;;;;5077533;28;20455;-92
2021/08/29 04:21:56;;;;;;;10.40;3.97;;;19.60;51.30;;;;;;5077089;28;20463;-92
2021/08/29 04:24:28;;;;;;;7.90;5.93;;;19.80;51.50;;;;;;5076861;28;20514;-91
2021/08/29 04:26:56;;;;;;;6.90;6.10;;;19.70;50.80;;;;;;5077110;28;20486;-91
2021/08/29 04:29:32;;;;;;;8.17;5.93;;;19.70;50.40;;;;;;5077310;28;20435;-91
2021/08/29 04:31:59;;;;;;;12.03;5.40;;;19.80;50.30;;;;;;5077233;28;20481;-92
2021/08/29 04:34:32;;;;;;;8.93;4.40;;;19.60;49.30;;;;;;5077049;28;20514;-91
2021/08/29 04:37:05;;;;;;;10.67;6.57;;;18.90;50.70;;;;;;5077875;28;20795;-91
2021/08/29 04:39:39;;;;;;;9.30;6.77;;;18.70;51.30;;;;;;5077059;28;20460;-91
2021/08/29 04:42:09;;;;;;;12.97;6.67;;;18.60;51.10;;;;;;5076925;28;20540;-90
2021/08/29 04:44:39;;;;;;;8.07;6.30;;;18.50;52.10;;;;;;5077976;28;20446;-90
2021/08/29 04:47:06;;;;;;;9.47;7.17;;;18.40;51.20;;;;;;5077891;28;20475;-90
2021/08/29 04:49:36;;;;;;;10.80;6.27;;;18.20;51.60;;;;;;5077133;28;20543;-91
2021/08/29 04:52:04;;;;;;;7.57;5.70;;;18.30;52.50;;;;;;5076730;28;20494;-90
2021/08/29 04:54:31;;;;;;;5.80;4.37;;;18.40;52.70;;;;;;5079136;28;20462;-92
2021/08/29 04:56:59;;;;;;;6.13;4.73;;;18.80;53.30;;;;;;5078615;28;20443;-92
2021/08/29 04:59:26;;;;;;;7.97;6.90;;;19.10;52.10;;;;;;5077741;28;20495;-92
2021/08/29 05:01:56;;;;;;;10.10;6.60;;;19.20;51.80;;;;;;5081780;28;20987;-92
2021/08/29 05:04:23;;;;;;;10.67;7.57;;;19.10;50.90;;;;;;5080833;28;20866;-93
2021/08/29 05:06:50;;;;;;;6.87;5.90;;;18.70;51.20;;;;;;5078480;28;20472;-92
2021/08/29 05:09:17;;;;;;;11.87;6.03;;;18.80;52.40;;;;;;5079249;28;20509;-92
2021/08/29 05:11:44;;;;;;;15.80;7.10;;;18.90;50.70;;;;;;5078469;28;20540;-93
2021/08/29 05:14:12;;;;;;;5.77;4.67;;;19.00;50.90;;;;;;5078172;28;20456;-93
2021/08/29 05:16:39;;;;;;;3.90;3.70;;;19.00;51.90;;;;;;5079284;28;20475;-92
2021/08/29 05:19:06;;;;;;;9.50;6.47;;;19.40;52.90;;;;;;5078680;28;20436;-93
2021/08/29 05:21:36;;;;;;;9.80;7.27;;;19.40;50.40;;;;;;5078616;28;20468;-92
2021/08/29 05:24:06;;;;;;;15.53;6.17;;;19.10;50.00;;;;;;5080184;28;20450;-92
2021/08/29 05:26:35;;;;;;;7.80;6.13;;;18.60;52.50;;;;;;5080374;28;20552;-92
2021/08/29 05:29:05;;;;;;;6.20;5.57;;;18.20;51.90;;;;;;5081485;28;20500;-92
2021/08/29 05:31:33;;;;;;;9.77;4.53;;;18.50;53.80;;;;;;5086808;28;20454;-92
2021/08/29 05:34:00;;;;;;;5.20;4.60;;;18.90;53.20;;;;;;5077334;28;20436;-92
2021/08/29 05:36:27;;;;;;;6.50;4.83;;;19.10;52.40;;;;;;5078850;28;20443;-92
2021/08/29 05:38:54;;;;;;;10.63;7.30;;;19.40;51.70;;;;;;5081015;28;20459;-92
2021/08/29 05:41:21;;;;;;;9.30;6.07;;;19.50;50.60;;;;;;5081078;28;20467;-92
2021/08/29 05:43:48;;;;;;;11.80;7.30;;;19.20;50.80;;;;;;5082906;28;20513;-92
2021/08/29 05:46:15;;;;;;;12.17;7.00;;;18.80;50.60;;;;;;5080035;28;20544;-92
2021/08/29 05:48:45;;;;;;;10.27;6.63;;;18.50;51.80;;;;;;5077865;28;20970;-92
2021/08/29 05:51:12;;;;;;;11.60;7.50;;;18.50;52.30;;;;;;5076467;28;20525;-92
2021/08/29 05:53:39;;;;;;;6.13;4.53;;;19.00;51.80;;;;;;5076077;28;20436;-92
2021/08/29 05:56:06;;;;;;;12.20;6.27;;;18.80;53.30;;;;;;5086427;28;20458;-92
2021/08/29 05:58:36;;;;;;;11.43;5.47;;;18.90;52.00;;;;;;5079839;28;20933;-92
2021/08/29 06:01:03;;;;;;;5.80;4.73;;;19.40;52.50;;;;;;5078724;28;20486;-92
2021/08/29 06:03:37;;;;;;;7.93;6.47;;;19.70;51.50;;;;;;5077900;28;20447;-92
2021/08/29 06:06:06;;;;;;;9.07;6.43;;;19.10;50.90;;;;;;5076801;28;21011;-92
2021/08/29 06:08:33;;;;;;;5.77;4.80;;;18.60;51.30;;;;;;5076314;28;20477;-92
2021/08/29 06:11:00;;;;;;;6.23;4.40;;;18.80;53.10;;;;;;5077074;28;20468;-92
2021/08/29 06:13:27;;;;;;;8.03;5.90;;;19.50;52.80;;;;;;5076199;28;20435;-92
2021/08/29 06:15:54;;;;;;;9.23;5.73;;;19.60;50.60;;;;;;5075982;28;20455;-92
2021/08/29 06:18:21;;;;;;;8.93;6.10;;;18.50;52.10;;;;;;5075321;28;20435;-92
2021/08/29 06:20:48;;;;;;;7.30;5.90;;;18.00;54.00;;;;;;5076247;28;20499;-92
2021/08/29 06:23:17;;;;;;;9.20;6.73;;;18.30;54.60;;;;;;5076303;28;20538;-92
2021/08/29 06:25:46;;;;;;;8.70;6.63;;;18.40;52.50;;;;;;5076217;28;20452;-92
2021/08/29 06:28:15;;;;;;;15.20;6.67;;;18.40;52.50;;;;;;5077645;28;20514;-92
2021/08/29 06:30:44;;;;;;;4.40;3.90;;;18.40;53.60;;;;;;5077484;28;20554;-92
2021/08/29 06:33:11;;;;;;;9.20;6.30;;;18.80;53.80;;;;;;5078079;28;20463;-92
2021/08/29 06:35:38;;;;;;;8.90;7.00;;;19.20;51.80;;;;;;5090263;28;20459;-92
2021/08/29 06:38:09;;;;;;;7.40;6.03;;;18.00;53.60;;;;;;5096320;28;20507;-92
2021/08/29 06:40:40;;;;;;;10.17;6.83;;;17.40;56.50;;;;;;5080409;28;20475;-92
2021/08/29 06:43:10;;;;;;;11.50;6.37;;;17.10;56.20;;;;;;5080452;28;20451;-92
2021/08/29 06:45:42;;;;;;;11.53;7.07;;;17.80;56.30;;;;;;5081418;28;20451;-92
2021/08/29 06:48:16;;;;;;;8.43;6.50;;;18.10;54.50;;;;;;5086688;28;20565;-92
2021/08/29 06:50:50;;;;;;;8.27;6.60;;;18.60;54.80;;;;;;5090018;28;20471;-90
2021/08/29 06:53:20;;;;;;;6.77;5.80;;;18.60;53.60;;;;;;5091514;28;20518;-92
2021/08/29 06:55:51;;;;;;;7.00;5.83;;;19.20;53.30;;;;;;5087988;28;20485;-92
2021/08/29 06:58:18;;;;;;;8.13;6.20;;;19.60;51.70;;;;;;5076443;28;20427;-92
2021/08/29 07:00:45;;;;;;;5.97;5.03;;;19.40;51.30;;;;;;5076668;28;20463;-91
2021/08/29 07:03:12;;;;;;;6.50;4.53;;;18.80;53.30;;;;;;5077270;28;20439;-92
2021/08/29 07:05:39;;;;;;;7.03;5.57;;;18.90;53.20;;;;;;5078367;28;20467;-92
2021/08/29 07:08:09;;;;;;;7.80;6.30;;;18.90;52.70;;;;;;5078219;28;20991;-92
2021/08/29 07:10:39;;;;;;;5.23;4.10;;;19.00;52.40;;;;;;5089510;28;20461;-92
2021/08/29 07:13:09;;;;;;;8.80;5.57;;;19.10;54.10;;;;;;5079225;28;20486;-92
2021/08/29 07:15:39;;;;;;;8.10;4.77;;;19.50;52.50;;;;;;5091789;28;20539;-92
2021/08/29 07:18:08;;;;;;;7.20;5.60;;;19.50;52.60;;;;;;5089951;28;20443;-92
2021/08/29 07:20:37;;;;;;;4.90;4.17;;;19.80;52.10;;;;;;5077509;28;20497;-92
2021/08/29 07:23:04;;;;;;;7.63;5.10;;;19.90;51.10;;;;;;5076304;28;20439;-92
2021/08/29 07:25:36;;;;;;;4.83;4.53;;;19.40;51.90;;;;;;5076880;28;20447;-92
2021/08/29 07:28:04;;;;;;;7.57;5.17;;;19.30;52.70;;;;;;5077132;28;20471;-91
2021/08/29 07:30:32;;;;;;;6.53;4.20;;;19.50;52.90;;;;;;5077108;28;20447;-92
2021/08/29 07:33:02;;;;;;;4.70;3.87;;;19.70;51.40;;;;;;5078472;28;20451;-92
2021/08/29 07:35:29;;;;;;;4.50;3.70;;;19.50;52.60;;;;;;5077020;28;20456;-92
2021/08/29 07:37:56;;;;;;;4.03;3.40;;;19.50;52.20;;;;;;5080101;28;20451;-92
2021/08/29 07:40:23;;;;;;;5.03;3.47;;;19.30;52.30;;;;;;5081254;28;21024;-92
2021/08/29 07:42:57;;;;;;;4.20;3.43;;;19.00;53.10;;;;;;5079887;28;20490;-92
2021/08/29 07:45:29;;;;;;;3.73;3.23;;;19.30;52.40;;;;;;5081454;28;20512;-92
2021/08/29 07:47:58;;;;;;;9.80;5.80;;;19.40;52.80;;;;;;5081329;28;20471;-92
2021/08/29 07:50:25;;;;;;;6.13;2.97;;;19.50;52.30;;;;;;5081841;28;20475;-91
2021/08/29 07:53:01;;;;;;;4.20;3.37;;;19.20;52.50;;;;;;5081472;28;20889;-91
2021/08/29 07:55:31;;;;;;;4.73;3.30;;;18.80;54.40;;;;;;5081739;28;20521;-92
2021/08/29 07:58:01;;;;;;;3.50;2.90;;;18.60;54.30;;;;;;5088707;28;20453;-92
2021/08/29 08:00:31;;;;;;;3.27;3.17;;;18.80;54.40;;;;;;5082117;28;20467;-92
2021/08/29 08:03:11;;;;;;;3.70;2.90;;;18.90;54.80;;;;;;5082340;28;20513;-92
2021/08/29 08:05:39;;;;;;;3.70;2.83;;;18.90;54.70;;;;;;5082190;28;20481;-92
2021/08/29 08:08:06;;;;;;;3.90;2.83;;;19.30;54.10;;;;;;5083288;28;20501;-92
2021/08/29 08:10:37;;;;;;;3.50;3.13;;;19.50;52.70;;;;;;5094340;28;20463;-92
2021/08/29 08:13:07;;;;;;;5.10;2.97;;;19.40;52.80;;;;;;5086049;28;20447;-92
2021/08/29 08:15:35;;;;;;;3.97;3.10;;;19.60;52.50;;;;;;5082411;28;20474;-92
2021/08/29 08:18:07;;;;;;;3.30;2.70;;;19.80;51.90;;;;;;5082416;28;20444;-92
2021/08/29 08:20:36;;;;;;;3.70;3.00;;;19.60;52.30;;;;;;5082035;28;20474;-92
2021/08/29 08:23:05;;;;;;;3.10;2.73;;;19.80;52.50;;;;;;5081568;28;20450;-92
2021/08/29 08:25:55;;;;;;;3.23;2.40;;;19.90;51.60;;;;;;5081685;28;20473;-91
2021/08/29 08:31:54;;;;;;;4.23;3.00;;;19.70;51.50;;;;;;5078220;28;20964;-90
2021/08/29 08:34:28;;;;;;;2.93;2.77;;;19.50;51.20;;;;;;5079679;28;20462;-90
2021/08/29 08:36:55;;;;;;;3.30;2.83;;;19.80;52.00;;;;;;5080416;28;20438;-90
2021/08/29 08:45:31;;;;;;;2.97;2.70;;;19.80;53.30;;;;;;5078155;28;20847;-90
2021/08/29 08:52:03;;;;;;;3.63;2.93;;;19.90;53.40;;;;;;5025907;28;20445;-91
2021/08/29 08:54:54;;;;;;;2.77;2.30;;;19.90;52.10;;;;;;5079124;28;20901;-91
2021/08/29 09:01:25;;;;;;;3.03;2.60;;;20.00;53.70;;;;;;4996674;28;20918;-91
2021/08/29 09:23:31;;;;;;;2.73;2.33;;;19.20;55.60;;;;;;4814274;29;20427;-88
2021/08/29 09:26:03;;;;;;;3.63;2.40;;;19.90;54.40;;;;;;4846109;29;20484;-87
2021/08/29 09:28:30;;;;;;;2.40;2.17;;;19.50;54.10;;;;;;4845637;29;20509;-91
2021/08/29 09:31:09;;;;;;;2.50;2.23;;;19.70;55.10;;;;;;4844971;29;20500;-90
2021/08/29 09:34:06;;;;;;;3.47;2.37;;;19.60;55.10;;;;;;4845184;29;20464;-91
2021/08/29 10:00:36;;;;;;;3.07;2.37;;;22.00;51.00;;;;;;4765275;30;20553;-91
2021/08/29 10:06:19;;;;;;;2.23;1.90;;;22.30;49.30;;;;;;4719569;30;20472;-92
2021/08/29 10:08:50;;;;;;;1.80;1.70;;;22.30;48.70;;;;;;4727220;30;20569;-92
2021/08/29 10:11:24;;;;;;;1.90;1.80;;;22.10;49.70;;;;;;4721222;30;20508;-91
2021/08/29 10:13:56;;;;;;;3.43;1.97;;;21.70;49.80;;;;;;4722507;30;20471;-91
2021/08/29 10:16:35;;;;;;;2.30;2.03;;;21.60;50.10;;;;;;4716001;30;20911;-91
2021/08/29 10:19:29;;;;;;;;;;;;;;;;;;;;;
2021/08/29 10:22:04;;;;;;;2.13;1.93;;;21.60;49.90;;;;;;4715480;30;20473;-89
2021/08/29 10:24:36;;;;;;;2.20;2.00;;;21.70;49.80;;;;;;4752804;30;20461;-91
2021/08/29 10:27:06;;;;;;;3.80;2.37;;;21.60;49.40;;;;;;4803843;29;20506;-91
2021/08/29 10:30:01;;;;;;;3.10;2.80;;;21.60;49.90;;;;;;4891155;29;20429;-91
2021/08/29 10:32:35;;;;;;;2.27;2.03;;;21.80;50.10;;;;;;4950560;29;20456;-91
2021/08/29 10:35:08;;;;;;;3.70;2.47;;;21.90;49.70;;;;;;4939929;29;20541;-91
2021/08/29 10:37:53;;;;;;;4.80;2.80;;;22.10;50.60;;;;;;4929125;29;20454;-91
2021/08/29 10:40:26;;;;;;;4.50;2.80;;;22.60;49.60;;;;;;5000998;28;20476;-91
2021/08/29 10:42:55;;;;;;;2.83;2.37;;;23.10;48.90;;;;;;5037231;28;20476;-91
2021/08/29 10:45:24;;;;;;;2.70;2.50;;;22.60;47.00;;;;;;5037339;28;20522;-91
2021/08/29 10:48:03;;;;;;;2.90;2.73;;;22.70;48.00;;;;;;5036626;28;20479;-91
2021/08/29 10:51:03;;;;;;;6.10;2.20;;;22.50;49.60;;;;;;5037466;28;20469;-91
2021/08/29 10:57:10;;;;;;;4.43;2.00;;;22.70;47.20;;;;;;5031250;28;20528;-91
2021/08/29 10:59:37;;;;;;;2.30;2.10;;;22.80;47.10;;;;;;5032266;28;21092;-91
2021/08/29 11:02:35;;;;;;;2.60;2.40;;;22.50;47.40;;;;;;5034914;28;20468;-91
2021/08/29 11:05:02;;;;;;;2.40;2.23;;;22.30;47.30;;;;;;5032623;28;20815;-91
2021/08/29 11:07:46;;;;;;;2.50;2.40;;;22.00;48.30;;;;;;5032106;28;20493;-91
2021/08/29 11:10:34;;;;;;;2.80;2.40;;;21.90;48.30;;;;;;5032263;28;20449;-91
2021/08/29 11:13:47;;;;;;;2.43;2.30;;;21.90;48.50;;;;;;5011331;28;20455;-91
2021/08/29 11:16:22;;;;;;;2.23;2.13;;;21.70;47.30;;;;;;5012542;28;20884;-91
2021/08/29 11:19:18;;;;;;;2.60;2.40;;;21.90;47.80;;;;;;5012493;28;20493;-91
2021/08/29 11:22:19;;;;;;;4.50;3.53;;;21.70;47.50;;;;;;5012027;28;20450;-90
2021/08/29 11:28:31;;;;;;;3.10;2.60;;;21.50;48.20;;;;;;5007936;28;20466;-92
2021/08/29 11:31:01;;;;;;;2.77;2.50;;;21.30;49.00;;;;;;5011908;28;20516;-91
2021/08/29 11:33:45;;;;;;;6.77;2.60;;;21.30;48.90;;;;;;5013149;28;20454;-92
2021/08/29 11:36:40;;;;;;;4.10;2.57;;;21.40;49.30;;;;;;5012832;28;20442;-92
2021/08/29 11:39:43;;;;;;;2.50;2.23;;;21.50;48.40;;;;;;5012332;28;20438;-92
2021/08/29 11:42:13;;;;;;;2.70;2.50;;;21.80;48.10;;;;;;5025399;28;20466;-91
2021/08/29 11:44:43;;;;;;;2.30;2.17;;;21.90;48.50;;;;;;5011945;28;20465;-92
2021/08/29 11:47:23;;;;;;;3.20;2.90;;;21.80;48.20;;;;;;5012352;28;20461;-92
2021/08/29 13:32:22;;;;;;;2.30;2.10;;;22.40;47.20;;;;;;5013895;28;20540;-90
2021/08/29 13:34:49;;;;;;;2.40;2.20;;;22.00;48.40;;;;;;5015667;28;20484;-91
2021/08/29 13:37:33;;;;;;;2.93;2.50;;;21.90;49.00;;;;;;5018541;28;20943;-91
2021/08/29 13:43:24;;;;;;;2.50;2.30;;;21.70;48.60;;;;;;5006759;28;20553;-91
2021/08/29 13:46:18;;;;;;;3.00;2.70;;;21.80;48.40;;;;;;5032335;28;20457;-90
2021/08/29 13:49:01;;;;;;;4.40;3.67;;;21.70;48.80;;;;;;5015903;28;20553;-91
2021/08/29 13:51:47;;;;;;;3.20;2.80;;;21.60;49.40;;;;;;5015146;28;20500;-90
2021/08/29 13:54:17;;;;;;;5.20;3.13;;;21.60;49.30;;;;;;5015922;28;20458;-91
2021/08/29 13:56:56;;;;;;;4.23;2.90;;;21.90;49.40;;;;;;5015317;28;20508;-90
2021/08/29 13:59:29;;;;;;;3.10;2.80;;;21.90;49.10;;;;;;5015195;28;20421;-90
2021/08/29 14:02:04;;;;;;;2.73;2.33;;;22.10;49.40;;;;;;5014664;28;20530;-90
2021/08/29 14:04:44;;;;;;;3.97;3.33;;;22.10;49.30;;;;;;5014492;28;20471;-90
2021/08/29 14:07:16;;;;;;;4.90;3.37;;;21.70;49.00;;;;;;5014556;28;20465;-90
2021/08/29 14:09:47;;;;;;;3.70;2.80;;;21.70;49.00;;;;;;5014374;28;20477;-91
2021/08/29 14:12:15;;;;;;;3.33;2.70;;;22.00;49.10;;;;;;5014718;28;20482;-90
2021/08/29 14:14:43;;;;;;;3.77;3.43;;;21.80;49.30;;;;;;5014836;28;20470;-90
2021/08/29 14:17:12;;;;;;;3.87;3.00;;;22.00;48.80;;;;;;5014731;28;20454;-90
2021/08/29 14:19:46;;;;;;;4.10;3.27;;;22.10;48.40;;;;;;5014803;28;20458;-90
2021/08/29 14:22:14;;;;;;;2.93;2.83;;;22.20;48.40;;;;;;5014669;28;20474;-90
2021/08/29 14:24:57;;;;;;;3.90;3.17;;;22.30;48.00;;;;;;5018251;28;20456;-91
2021/08/29 14:27:32;;;;;;;6.47;4.13;;;22.10;48.50;;;;;;5016182;28;20466;-91
2021/08/29 14:30:03;;;;;;;3.40;3.27;;;22.20;49.10;;;;;;5015701;28;20437;-91
2021/08/29 14:36:08;;;;;;;5.87;3.80;;;22.40;48.70;;;;;;5015826;28;20931;-91
2021/08/29 14:39:00;;;;;;;3.97;3.83;;;22.50;48.00;;;;;;4974508;28;20443;-90
2021/08/29 14:41:52;;;;;;;4.10;3.50;;;22.60;48.10;;;;;;5015182;28;20470;-90
2021/08/29 14:44:42;;;;;;;4.33;3.63;;;22.50;47.70;;;;;;5015369;28;20453;-91
2021/08/29 14:48:02;;;;;;;3.57;3.00;;;22.10;48.80;;;;;;5014218;28;20457;-91
2021/08/29 14:56:57;;;;;;;3.07;2.63;;;22.20;48.90;;;;;;5012994;28;20447;-90
2021/08/29 14:59:33;;;;;;;4.13;3.00;;;22.00;49.00;;;;;;5014447;28;20446;-90
2021/08/29 15:02:05;;;;;;;3.17;3.00;;;22.10;48.70;;;;;;5014635;28;20838;-91
2021/08/29 15:04:36;;;;;;;2.93;2.50;;;22.10;48.60;;;;;;5014352;28;20478;-90
2021/08/29 15:07:20;;;;;;;3.50;2.70;;;22.10;48.10;;;;;;5015549;28;20450;-90
2021/08/29 15:10:02;;;;;;;3.20;2.90;;;22.00;48.20;;;;;;5015026;28;20477;-90
2021/08/29 15:12:32;;;;;;;5.20;2.97;;;21.90;48.80;;;;;;5014576;28;20982;-90
2021/08/29 15:15:02;;;;;;;3.60;3.17;;;21.80;49.20;;;;;;5014675;28;20462;-90
2021/08/29 15:17:30;;;;;;;4.10;2.90;;;21.60;49.90;;;;;;5015020;28;20500;-90
2021/08/29 15:20:01;;;;;;;3.67;2.63;;;21.70;49.80;;;;;;5015239;28;20512;-90
2021/08/29 15:22:28;;;;;;;2.90;2.70;;;21.60;49.20;;;;;;5014684;28;20954;-90
2021/08/29 15:24:57;;;;;;;2.63;2.50;;;22.00;49.70;;;;;;5014378;28;20454;-91
2021/08/29 15:27:27;;;;;;;2.60;2.40;;;21.70;49.60;;;;;;5014064;28;20545;-91
2021/08/29 15:29:58;;;;;;;4.20;2.33;;;21.60;49.80;;;;;;5013466;28;20474;-90
2021/08/29 15:32:25;;;;;;;3.23;3.10;;;21.30;50.80;;;;;;5013849;28;20481;-90
2021/08/29 15:34:52;;;;;;;2.80;2.60;;;21.20;51.50;;;;;;5016144;28;20435;-90
2021/08/29 15:37:20;;;;;;;2.67;2.47;;;21.40;50.90;;;;;;5014635;28;20438;-90
2021/08/29 15:39:48;;;;;;;2.30;2.00;;;21.60;50.60;;;;;;5013498;28;20466;-90
2021/08/29 15:42:22;;;;;;;3.43;2.30;;;21.70;49.80;;;;;;5014375;28;20883;-90
2021/08/29 15:48:25;;;;;;;3.13;2.60;;;21.20;50.60;;;;;;4849710;29;21043;-90
2021/08/29 15:50:59;;;;;;;5.77;2.33;;;21.20;50.80;;;;;;4946286;28;20476;-90
2021/08/29 15:53:55;;;;;;;2.50;2.23;;;21.30;50.30;;;;;;4938204;29;20436;-90
2021/08/29 15:56:34;;;;;;;3.03;2.60;;;21.30;50.30;;;;;;4951812;29;20453;-90
2021/08/29 15:59:14;;;;;;;2.87;2.50;;;21.00;50.60;;;;;;4956520;28;20452;-90
2021/08/29 16:01:43;;;;;;;2.37;2.23;;;20.90;51.10;;;;;;4957354;28;20523;-90
2021/08/29 16:05:21;;;;;;;3.20;2.43;;;20.60;51.40;;;;;;4960466;29;20439;-89
2021/08/29 16:07:50;;;;;;;4.17;2.70;;;20.40;51.00;;;;;;4902276;29;20455;-91
2021/08/29 16:10:19;;;;;;;2.47;2.20;;;20.90;50.90;;;;;;4957591;28;20567;-92
2021/08/29 16:12:59;;;;;;;2.53;2.33;;;21.00;51.40;;;;;;4957146;29;20464;-92
2021/08/29 16:15:48;;;;;;;5.00;2.80;;;21.20;50.50;;;;;;4957846;29;20951;-92
2021/08/29 16:21:37;;;;;;;4.13;2.80;;;21.10;50.40;;;;;;4952383;28;20829;-92
2021/08/29 16:24:16;;;;;;;3.20;3.00;;;21.00;49.90;;;;;;4993643;28;20457;-92
2021/08/29 16:26:50;;;;;;;4.97;2.70;;;21.00;49.90;;;;;;5018059;28;20450;-92